createdAt,value
2022-08-08T00:00:53.599Z,12.30
2022-08-08T00:02:32.969Z,12.40
2022-08-08T00:05:09.662Z,12.30
2022-08-08T00:07:45.994Z,12.30
2022-08-08T00:10:28.039Z,12.40
2022-08-08T00:13:10.088Z,12.50
2022-08-08T00:15:56.999Z,12.40
2022-08-08T00:18:37.070Z,12.50
2022-08-08T00:21:07.732Z,12.50
2022-08-08T00:23:47.651Z,12.50
2022-08-08T00:26:29.058Z,12.50
2022-08-08T00:29:08.029Z,12.50
2022-08-08T00:32:28.815Z,12.50
2022-08-08T00:35:06.727Z,12.50
2022-08-08T00:37:57.057Z,12.50
2022-08-08T00:41:17.583Z,12.60
2022-08-08T00:44:18.109Z,12.60
2022-08-08T00:48:01.598Z,12.60
2022-08-08T00:51:10.599Z,12.50
2022-08-08T00:54:16.205Z,12.40
2022-08-08T00:57:34.402Z,12.20
2022-08-08T01:00:11.032Z,12.10
2022-08-08T01:04:02.674Z,12.00
2022-08-08T01:06:47.489Z,12.00
2022-08-08T01:09:52.452Z,12.00
2022-08-08T01:13:18.327Z,12.00
2022-08-08T01:16:38.433Z,12.00
2022-08-08T01:20:01.981Z,12.00
2022-08-08T01:23:00.170Z,12.10
2022-08-08T01:26:13.192Z,12.10
2022-08-08T01:29:06.727Z,12.20
2022-08-08T01:32:14.865Z,12.20
2022-08-08T01:35:16.067Z,12.20
2022-08-08T01:38:28.557Z,12.20
2022-08-08T01:41:04.506Z,12.20
2022-08-08T01:43:48.167Z,12.20
2022-08-08T01:46:47.299Z,12.20
2022-08-08T01:49:37.762Z,12.20
2022-08-08T01:54:02.063Z,12.20
2022-08-08T01:56:26.174Z,12.20
2022-08-08T01:58:38.616Z,12.20
2022-08-08T02:01:17.347Z,12.20
2022-08-08T02:04:08.787Z,12.30
2022-08-08T02:06:58.590Z,12.30
2022-08-08T02:10:03.325Z,12.30
2022-08-08T02:12:51.328Z,12.30
2022-08-08T02:15:34.947Z,12.20
2022-08-08T02:18:13.784Z,12.20
2022-08-08T02:21:13.396Z,12.10
2022-08-08T02:23:48.027Z,12.10
2022-08-08T02:26:30.115Z,12.00
2022-08-08T02:29:20.773Z,12.00
2022-08-08T02:32:15.771Z,12.00
2022-08-08T02:35:30.255Z,12.00
2022-08-08T02:38:36.534Z,12.00
2022-08-08T02:41:58.982Z,12.00
2022-08-08T02:44:58.782Z,12.10
2022-08-08T02:48:27.339Z,12.10
2022-08-08T02:51:56.958Z,12.00
2022-08-08T02:55:20.800Z,12.00
2022-08-08T02:58:28.330Z,12.00
2022-08-08T03:01:32.775Z,11.90
2022-08-08T03:05:13.545Z,11.90
2022-08-08T03:08:35.329Z,11.90
2022-08-08T03:11:59.881Z,11.80
2022-08-08T03:15:57.288Z,11.80
2022-08-08T03:17:52.151Z,11.80
2022-08-08T03:20:47.132Z,11.80
2022-08-08T03:23:22.197Z,11.80
2022-08-08T03:25:52.728Z,11.80
2022-08-08T03:28:29.298Z,11.70
2022-08-08T03:31:21.970Z,11.70
2022-08-08T03:33:55.698Z,11.70
2022-08-08T03:36:31.171Z,11.70
2022-08-08T03:39:15.391Z,11.60
2022-08-08T03:42:28.741Z,11.60
2022-08-08T03:44:35.484Z,11.60
2022-08-08T03:47:14.308Z,11.60
2022-08-08T03:50:00.646Z,11.60
2022-08-08T03:52:34.079Z,11.60
2022-08-08T03:55:55.282Z,11.70
2022-08-08T03:58:33.736Z,11.80
2022-08-08T04:01:02.196Z,11.80
2022-08-08T04:03:58.639Z,11.90
2022-08-08T04:06:30.310Z,12.00
2022-08-08T04:09:10.481Z,11.90
2022-08-08T04:11:48.570Z,11.90
2022-08-08T04:14:35.558Z,11.80
2022-08-08T04:17:07.117Z,11.80
2022-08-08T04:19:51.910Z,11.90
2022-08-08T04:22:29.516Z,11.90
2022-08-08T04:24:59.013Z,12.00
2022-08-08T04:28:02.723Z,12.00
2022-08-08T04:30:19.684Z,12.10
2022-08-08T04:32:50.282Z,12.30
2022-08-08T04:35:22.434Z,12.40
2022-08-08T04:37:52.148Z,12.50
2022-08-08T04:40:23.838Z,12.60
2022-08-08T04:42:57.997Z,12.80
2022-08-08T04:45:30.029Z,12.90
2022-08-08T04:48:00.336Z,13.00
2022-08-08T04:50:37.830Z,13.20
2022-08-08T04:53:52.157Z,13.40
2022-08-08T04:55:57.002Z,13.70
2022-08-08T04:58:27.287Z,13.80
2022-08-08T05:00:56.293Z,13.90
2022-08-08T05:04:08.983Z,14.00
2022-08-08T05:06:25.755Z,14.10
2022-08-08T05:09:02.713Z,14.20
2022-08-08T05:11:38.927Z,14.30
2022-08-08T05:14:12.364Z,14.30
2022-08-08T05:16:54.290Z,14.30
2022-08-08T05:20:10.417Z,14.40
2022-08-08T05:22:18.168Z,14.50
2022-08-08T05:24:48.720Z,14.60
2022-08-08T05:27:19.069Z,14.60
2022-08-08T05:29:50.281Z,14.70
2022-08-08T05:32:27.098Z,14.70
2022-08-08T05:35:04.624Z,14.90
2022-08-08T05:37:52.929Z,15.00
2022-08-08T05:40:28.202Z,15.10
2022-08-08T05:43:38.133Z,15.20
2022-08-08T05:46:07.801Z,15.30
2022-08-08T05:48:37.769Z,15.40
2022-08-08T05:51:15.038Z,15.50
2022-08-08T05:53:56.263Z,15.50
2022-08-08T05:56:42.347Z,15.60
2022-08-08T05:59:58.916Z,15.70
2022-08-08T06:02:33.896Z,15.80
2022-08-08T06:05:06.909Z,15.80
2022-08-08T06:08:01.892Z,15.90
2022-08-08T06:10:34.705Z,16.00
2022-08-08T06:13:08.519Z,16.00
2022-08-08T06:15:51.105Z,16.00
2022-08-08T06:18:25.630Z,16.00
2022-08-08T06:20:57.597Z,16.10
2022-08-08T06:23:48.963Z,16.10
2022-08-08T06:26:43.878Z,16.20
2022-08-08T06:29:07.129Z,16.10
2022-08-08T06:32:11.206Z,16.10
2022-08-08T06:34:56.324Z,16.10
2022-08-08T06:37:40.846Z,16.20
2022-08-08T06:40:16.485Z,16.20
2022-08-08T06:42:53.873Z,16.30
2022-08-08T06:45:23.668Z,16.30
2022-08-08T06:48:00.722Z,16.30
2022-08-08T06:50:33.809Z,16.30
2022-08-08T06:53:20.198Z,16.30
2022-08-08T06:56:00.449Z,16.30
2022-08-08T06:58:33.828Z,16.40
2022-08-08T07:01:24.287Z,16.50
2022-08-08T07:04:36.349Z,16.60
2022-08-08T07:06:51.766Z,16.70
2022-08-08T07:09:27.082Z,16.90
2022-08-08T07:12:10.830Z,17.00
2022-08-08T07:14:54.027Z,17.20
2022-08-08T07:17:40.148Z,17.30
2022-08-08T07:20:22.546Z,17.50
2022-08-08T07:23:04.578Z,17.70
2022-08-08T07:25:35.610Z,17.80
2022-08-08T07:28:18.621Z,17.90
2022-08-08T07:30:48.669Z,17.90
2022-08-08T07:33:19.850Z,17.90
2022-08-08T07:35:48.934Z,17.90
2022-08-08T07:38:28.448Z,18.00
2022-08-08T07:41:04.298Z,17.90
2022-08-08T07:43:37.145Z,17.90
2022-08-08T07:46:23.879Z,17.90
2022-08-08T07:48:55.877Z,18.00
2022-08-08T07:51:45.252Z,18.20
2022-08-08T07:54:27.569Z,18.40
2022-08-08T07:57:09.175Z,18.70
2022-08-08T07:59:49.144Z,18.80
2022-08-08T08:02:34.911Z,19.00
2022-08-08T08:05:15.029Z,19.10
2022-08-08T08:07:46.030Z,19.10
2022-08-08T08:10:30.303Z,19.30
2022-08-08T08:13:25.526Z,19.30
2022-08-08T08:16:12.749Z,19.40
2022-08-08T08:18:55.702Z,19.40
2022-08-08T08:21:44.940Z,19.30
2022-08-08T08:24:18.674Z,19.20
2022-08-08T08:26:52.768Z,19.30
2022-08-08T08:29:24.269Z,19.30
2022-08-08T08:32:03.216Z,19.30
2022-08-08T08:34:34.689Z,19.30
2022-08-08T08:37:07.920Z,19.30
2022-08-08T08:40:00.336Z,19.50
2022-08-08T08:42:31.693Z,19.60
2022-08-08T08:45:21.136Z,19.80
2022-08-08T08:47:54.330Z,19.90
2022-08-08T08:50:33.108Z,20.10
2022-08-08T08:53:27.806Z,20.20
2022-08-08T08:56:01.892Z,20.30
2022-08-08T08:58:37.830Z,20.50
2022-08-08T09:01:13.088Z,20.50
2022-08-08T09:03:47.132Z,20.50
2022-08-08T09:06:26.397Z,20.70
2022-08-08T09:09:01.872Z,20.80
2022-08-08T09:11:47.697Z,20.80
2022-08-08T09:14:26.490Z,20.80
2022-08-08T09:16:56.043Z,21.10
2022-08-08T09:21:53.814Z,21.40
2022-08-08T09:22:25.790Z,21.60
2022-08-08T09:24:56.962Z,22.30
2022-08-08T09:27:41.940Z,24.90
2022-08-08T09:30:20.160Z,26.90
2022-08-08T09:33:12.407Z,28.20
2022-08-08T09:35:49.141Z,28.30
2022-08-08T09:38:31.975Z,29.90
2022-08-08T09:41:06.656Z,31.60
2022-08-08T09:44:06.543Z,32.30
2022-08-08T09:46:45.228Z,32.40
2022-08-08T09:49:42.812Z,32.60
2022-08-08T09:52:59.222Z,31.20
2022-08-08T09:55:12.782Z,30.00
2022-08-08T09:57:55.602Z,28.80
2022-08-08T10:00:54.470Z,28.00
2022-08-08T10:03:19.791Z,27.40
2022-08-08T10:05:49.579Z,26.80
2022-08-08T10:08:18.552Z,26.40
2022-08-08T10:10:51.259Z,25.90
2022-08-08T10:13:26.125Z,25.60
2022-08-08T10:16:05.339Z,25.30
2022-08-08T10:18:37.191Z,24.80
2022-08-08T10:21:25.229Z,24.40
2022-08-08T10:24:04.326Z,24.00
2022-08-08T10:26:57.596Z,23.60
2022-08-08T10:29:58.716Z,23.30
2022-08-08T10:32:40.247Z,22.90
2022-08-08T10:36:08.312Z,22.60
2022-08-08T10:38:16.758Z,22.30
2022-08-08T10:40:47.649Z,22.00
2022-08-08T10:43:16.908Z,21.80
2022-08-08T10:45:55.793Z,21.70
2022-08-08T10:48:37.403Z,21.70
2022-08-08T10:51:24.471Z,21.60
2022-08-08T10:53:58.843Z,21.60
2022-08-08T10:56:34.824Z,21.70
2022-08-08T10:59:08.263Z,21.80
2022-08-08T11:01:39.662Z,21.80
2022-08-08T11:04:11.895Z,21.90
2022-08-08T11:06:47.523Z,22.00
2022-08-08T11:09:20.134Z,22.20
2022-08-08T11:12:05.354Z,22.50
2022-08-08T11:14:53.736Z,22.70
2022-08-08T11:17:59.534Z,22.90
2022-08-08T11:20:18.020Z,23.20
2022-08-08T11:22:53.145Z,23.40
2022-08-08T11:25:52.614Z,23.70
2022-08-08T11:28:16.925Z,24.00
2022-08-08T11:30:52.933Z,24.40
2022-08-08T11:33:51.977Z,24.50
2022-08-08T11:36:15.562Z,24.80
2022-08-08T11:38:54.808Z,25.10
2022-08-08T11:41:27.553Z,25.60
2022-08-08T11:43:58.418Z,26.30
2022-08-08T11:46:31.436Z,26.80
2022-08-08T11:49:04.361Z,26.80
2022-08-08T11:51:40.193Z,26.80
2022-08-08T11:54:31.271Z,26.70
2022-08-08T11:57:14.073Z,27.40
2022-08-08T11:59:58.226Z,28.60
2022-08-08T12:02:34.013Z,29.20
2022-08-08T12:05:06.777Z,30.80
2022-08-08T12:07:49.747Z,32.20
2022-08-08T12:10:23.465Z,33.10
2022-08-08T12:13:01.380Z,31.90
2022-08-08T12:15:39.872Z,31.10
2022-08-08T12:18:21.603Z,30.20
2022-08-08T12:20:55.095Z,29.40
2022-08-08T12:23:42.956Z,28.60
2022-08-08T12:26:28.409Z,27.90
2022-08-08T12:29:21.272Z,27.20
2022-08-08T12:32:02.669Z,26.70
2022-08-08T12:34:39.904Z,26.20
2022-08-08T12:37:12.227Z,25.60
2022-08-08T12:40:01.189Z,25.10
2022-08-08T12:42:33.510Z,24.80
2022-08-08T12:45:53.636Z,24.40
2022-08-08T12:48:09.590Z,24.20
2022-08-08T12:50:50.412Z,24.00
2022-08-08T12:53:24.877Z,23.90
2022-08-08T12:56:18.313Z,23.90
2022-08-08T12:58:54.618Z,24.00
2022-08-08T13:01:37.018Z,23.90
2022-08-08T13:04:18.691Z,23.90
2022-08-08T13:07:04.893Z,24.10
2022-08-08T13:09:43.303Z,24.10
2022-08-08T13:12:30.211Z,24.00
2022-08-08T13:15:03.674Z,24.10
2022-08-08T13:18:10.107Z,24.20
2022-08-08T13:20:27.388Z,24.40
2022-08-08T13:25:51.186Z,24.60
2022-08-08T13:28:32.776Z,24.70
2022-08-08T13:31:04.398Z,24.80
2022-08-08T13:33:42.012Z,24.90
2022-08-08T13:36:12.093Z,24.80
2022-08-08T13:38:40.887Z,24.80
2022-08-08T13:41:15.918Z,24.80
2022-08-08T13:43:47.646Z,24.80
2022-08-08T13:46:26.476Z,24.90
2022-08-08T13:49:11.438Z,24.90
2022-08-08T13:51:57.214Z,25.10
2022-08-08T13:54:31.317Z,25.20
2022-08-08T13:57:13.287Z,25.10
2022-08-08T13:59:44.345Z,25.10
2022-08-08T14:02:21.900Z,25.20
2022-08-08T14:04:55.349Z,25.30
2022-08-08T14:07:29.893Z,25.40
2022-08-08T14:10:05.579Z,25.60
2022-08-08T14:12:43.859Z,25.70
2022-08-08T14:15:31.509Z,25.90
2022-08-08T14:18:35.974Z,26.10
2022-08-08T14:21:20.296Z,26.20
2022-08-08T14:24:04.291Z,26.30
2022-08-08T14:26:45.903Z,26.30
2022-08-08T14:29:28.052Z,26.30
2022-08-08T14:32:12.840Z,26.40
2022-08-08T14:34:51.903Z,26.50
2022-08-08T14:37:27.907Z,26.60
2022-08-08T14:40:12.862Z,26.80
2022-08-08T14:42:55.255Z,26.70
2022-08-08T14:45:33.471Z,26.50
2022-08-08T14:48:16.275Z,26.30
2022-08-08T14:50:48.138Z,26.10
2022-08-08T14:53:17.521Z,25.80
2022-08-08T14:55:46.021Z,25.60
2022-08-08T14:58:16.535Z,25.30
2022-08-08T15:00:49.952Z,25.10
2022-08-08T15:03:19.947Z,24.80
2022-08-08T15:05:55.838Z,24.60
2022-08-08T15:08:35.385Z,24.30
2022-08-08T15:11:09.498Z,24.20
2022-08-08T15:14:02.947Z,24.10
2022-08-08T15:16:34.475Z,24.10
2022-08-08T15:19:04.850Z,24.00
2022-08-08T15:21:37.881Z,24.00
2022-08-08T15:24:14.095Z,23.90
2022-08-08T15:26:52.495Z,23.80
2022-08-08T15:29:24.461Z,23.70
2022-08-08T15:32:17.932Z,23.60
2022-08-08T15:34:44.309Z,23.50
2022-08-08T15:37:15.086Z,23.40
2022-08-08T15:39:47.866Z,23.30
2022-08-08T15:42:39.638Z,23.30
2022-08-08T15:45:06.266Z,23.20
2022-08-08T15:47:35.220Z,23.20
2022-08-08T15:50:04.237Z,23.10
2022-08-08T15:52:38.052Z,23.10
2022-08-08T15:55:09.823Z,23.10
2022-08-08T15:57:39.908Z,23.10
2022-08-08T16:00:26.777Z,23.10
2022-08-08T16:02:59.385Z,23.10
2022-08-08T16:05:35.321Z,23.10
2022-08-08T16:08:12.274Z,23.20
2022-08-08T16:13:04.571Z,23.20
2022-08-08T16:13:43.692Z,23.40
2022-08-08T16:16:18.024Z,23.40
2022-08-08T16:18:53.345Z,23.50
2022-08-08T16:21:29.654Z,23.40
2022-08-08T16:24:01.372Z,23.30
2022-08-08T16:26:34.745Z,23.20
2022-08-08T16:29:08.060Z,23.10
2022-08-08T16:31:41.101Z,23.00
2022-08-08T16:34:10.902Z,22.80
2022-08-08T16:36:40.600Z,22.70
2022-08-08T16:39:27.657Z,22.60
2022-08-08T16:42:01.811Z,22.50
2022-08-08T16:44:33.940Z,22.50
2022-08-08T16:47:18.599Z,22.40
2022-08-08T16:49:51.121Z,22.40
2022-08-08T16:55:00.062Z,22.40
2022-08-08T16:55:34.375Z,22.50
2022-08-08T16:58:13.999Z,22.50
2022-08-08T17:00:49.042Z,22.60
2022-08-08T17:03:25.175Z,22.80
2022-08-08T17:06:37.124Z,22.80
2022-08-08T17:08:59.410Z,22.80
2022-08-08T17:11:47.897Z,22.80
2022-08-08T17:14:26.898Z,22.70
2022-08-08T17:17:01.447Z,22.70
2022-08-08T17:19:31.925Z,22.70
2022-08-08T17:22:12.469Z,22.60
2022-08-08T17:24:42.032Z,22.50
2022-08-08T17:27:12.938Z,22.40
2022-08-08T17:29:56.831Z,22.30
2022-08-08T17:32:28.820Z,22.30
2022-08-08T17:35:55.225Z,22.30
2022-08-08T17:37:53.460Z,22.20
2022-08-08T17:40:23.226Z,22.20
2022-08-08T17:42:58.252Z,22.20
2022-08-08T17:45:27.420Z,22.20
2022-08-08T17:48:02.037Z,22.20
2022-08-08T17:50:32.960Z,22.20
2022-08-08T17:53:02.620Z,22.10
2022-08-08T17:56:07.570Z,22.10
2022-08-08T17:58:22.322Z,21.90
2022-08-08T18:00:57.496Z,21.80
2022-08-08T18:03:27.131Z,21.70
2022-08-08T18:05:56.127Z,21.50
2022-08-08T18:08:41.280Z,21.40
2022-08-08T18:11:15.021Z,21.30
2022-08-08T18:13:48.126Z,21.20
2022-08-08T18:16:22.994Z,21.10
2022-08-08T18:18:56.538Z,21.00
2022-08-08T18:21:59.702Z,20.90
2022-08-08T18:24:21.402Z,20.80
2022-08-08T18:26:53.839Z,20.70
2022-08-08T18:29:29.559Z,20.60
2022-08-08T18:32:00.185Z,20.50
2022-08-08T18:34:34.090Z,20.40
2022-08-08T18:37:08.211Z,20.30
2022-08-08T18:39:41.253Z,20.10
2022-08-08T18:42:14.368Z,20.00
2022-08-08T18:44:55.516Z,19.90
2022-08-08T18:47:28.012Z,19.80
2022-08-08T18:49:59.996Z,19.60
2022-08-08T18:52:30.449Z,19.60
2022-08-08T18:55:10.303Z,19.50
2022-08-08T18:57:45.500Z,19.40
2022-08-08T19:00:20.444Z,19.20
2022-08-08T19:02:55.500Z,19.20
2022-08-08T19:05:32.499Z,19.00
2022-08-08T19:08:24.732Z,19.00
2022-08-08T19:11:01.701Z,18.80
2022-08-08T19:13:53.756Z,18.70
2022-08-08T19:16:28.529Z,18.60
2022-08-08T19:19:09.764Z,18.50
2022-08-08T19:21:49.890Z,18.40
2022-08-08T19:24:41.769Z,18.30
2022-08-08T19:27:14.860Z,18.20
2022-08-08T19:29:46.273Z,18.20
2022-08-08T19:32:22.784Z,18.00
2022-08-08T19:34:53.588Z,18.00
2022-08-08T19:37:43.862Z,17.90
2022-08-08T19:40:17.323Z,17.90
2022-08-08T19:42:52.648Z,17.80
2022-08-08T19:45:57.436Z,17.80
2022-08-08T19:48:29.542Z,17.80
2022-08-08T19:51:02.837Z,17.70
2022-08-08T19:53:51.279Z,17.60
2022-08-08T19:56:39.222Z,17.60
2022-08-08T19:59:11.697Z,17.60
2022-08-08T20:02:01.719Z,17.50
2022-08-08T20:04:35.673Z,17.40
2022-08-08T20:08:29.193Z,17.40
2022-08-08T20:09:58.500Z,17.30
2022-08-08T20:12:35.224Z,17.30
2022-08-08T20:15:14.322Z,17.30
2022-08-08T20:17:47.829Z,17.30
2022-08-08T20:20:22.283Z,17.20
2022-08-08T20:22:54.091Z,17.20
2022-08-08T20:25:29.611Z,17.20
2022-08-08T20:28:04.868Z,17.10
2022-08-08T20:30:55.628Z,17.10
2022-08-08T20:35:57.987Z,17.00
2022-08-08T20:38:32.566Z,17.00
2022-08-08T20:41:16.961Z,16.90
2022-08-08T20:43:49.655Z,16.90
2022-08-08T20:46:20.690Z,16.80
2022-08-08T20:48:51.349Z,16.80
2022-08-08T20:51:21.644Z,16.60
2022-08-08T20:54:00.795Z,16.60
2022-08-08T20:56:35.745Z,16.50
2022-08-08T20:59:21.310Z,16.40
2022-08-08T21:02:06.009Z,16.40
2022-08-08T21:04:37.089Z,16.30
2022-08-08T21:07:08.244Z,16.30
2022-08-08T21:10:01.475Z,16.20
2022-08-08T21:12:33.282Z,16.10
2022-08-08T21:15:06.874Z,16.20
2022-08-08T21:17:36.689Z,16.30
2022-08-08T21:20:06.537Z,16.30
2022-08-08T21:22:36.934Z,16.20
2022-08-08T21:25:10.748Z,16.10
2022-08-08T21:28:09.608Z,16.20
2022-08-08T21:30:31.011Z,16.20
2022-08-08T21:32:59.654Z,16.10
2022-08-08T21:36:19.007Z,16.00
2022-08-08T21:38:18.448Z,16.00
2022-08-08T21:40:54.958Z,16.10
2022-08-08T21:43:33.085Z,16.10
2022-08-08T21:48:08.719Z,16.10
2022-08-08T21:48:53.616Z,16.10
2022-08-08T21:54:18.674Z,16.00
2022-08-08T21:54:23.305Z,16.10
2022-08-08T21:57:03.906Z,16.10
2022-08-08T22:00:03.142Z,16.00
2022-08-08T22:02:23.520Z,15.90
2022-08-08T22:04:58.547Z,15.80
2022-08-08T22:07:39.512Z,15.80
2022-08-08T22:10:18.390Z,15.80
2022-08-08T22:13:16.974Z,15.80
2022-08-08T22:15:59.025Z,15.80
2022-08-08T22:18:30.836Z,15.80
2022-08-08T22:21:01.660Z,15.70
2022-08-08T22:23:53.554Z,15.70
2022-08-08T22:26:27.857Z,15.70
2022-08-08T22:29:13.060Z,15.70
2022-08-08T22:32:02.100Z,15.60
2022-08-08T22:34:39.579Z,15.50
2022-08-08T22:37:27.743Z,15.50
2022-08-08T22:40:01.381Z,15.50
2022-08-08T22:42:34.843Z,15.50
2022-08-08T22:45:03.628Z,15.40
2022-08-08T22:47:38.386Z,15.40
2022-08-08T22:50:25.250Z,15.50
2022-08-08T22:53:22.299Z,15.50
2022-08-08T22:55:56.043Z,15.30
2022-08-08T22:58:33.114Z,15.30
2022-08-08T23:01:33.698Z,15.20
2022-08-08T23:03:53.794Z,15.20
2022-08-08T23:06:24.102Z,15.10
2022-08-08T23:08:55.166Z,15.00
2022-08-08T23:12:11.474Z,14.90
2022-08-08T23:14:15.502Z,14.90
2022-08-08T23:16:47.171Z,14.90
2022-08-08T23:19:18.260Z,14.90
2022-08-08T23:21:47.411Z,15.00
2022-08-08T23:24:22.253Z,15.00
2022-08-08T23:26:53.056Z,15.10
2022-08-08T23:29:29.753Z,15.00
2022-08-08T23:32:00.251Z,14.90
2022-08-08T23:34:31.081Z,14.90
2022-08-08T23:37:00.704Z,14.90
2022-08-08T23:39:41.778Z,14.90
2022-08-08T23:42:17.923Z,14.90
2022-08-08T23:44:52.030Z,14.90
2022-08-08T23:49:05.978Z,14.80
2022-08-08T23:50:29.811Z,14.80
2022-08-08T23:53:03.562Z,14.80
2022-08-08T23:55:42.153Z,14.90
2022-08-08T23:58:32.197Z,14.80
